Time;durP1;ratioP1;P1;durP2;ratioP2;P2;SDS_P1;SDS_P2;PMS_P1;PMS_P2;Temp;Humidity;BMP_temperature;BMP_pressure;BME280_temperature;BME280_humidity;BME280_pressure;Samples;Min_cycle;Max_cycle;Signal;HPM_P1;HPM_P2
2021/10/15 00:02:08;;;;;;;23.10;13.25;;;7.10;72.30;;;;;;5037609;28;20463;-37
2021/10/15 00:04:33;;;;;;;35.15;14.25;;;7.10;72.40;;;;;;5037919;28;20421;-34
2021/10/15 00:06:59;;;;;;;28.25;13.43;;;7.10;72.40;;;;;;5037788;28;20035;-37
2021/10/15 00:09:25;;;;;;;40.22;13.25;;;7.10;72.50;;;;;;5037641;28;20069;-34
2021/10/15 00:11:50;;;;;;;28.13;13.32;;;7.10;72.50;;;;;;5037647;28;20037;-35
2021/10/15 00:14:16;;;;;;;32.53;13.77;;;7.00;72.50;;;;;;5037519;28;20040;-37
2021/10/15 00:16:42;;;;;;;23.23;13.15;;;7.00;72.70;;;;;;5037582;28;20029;-36
2021/10/15 00:19:07;;;;;;;27.40;12.65;;;7.00;72.80;;;;;;5037748;28;20184;-37
2021/10/15 00:21:33;;;;;;;25.38;14.77;;;7.00;72.80;;;;;;5037424;28;20520;-34
2021/10/15 00:23:59;;;;;;;20.67;13.05;;;6.90;72.50;;;;;;5037808;28;20029;-37
2021/10/15 00:26:24;;;;;;;24.55;13.32;;;6.90;72.70;;;;;;5037311;28;20051;-38
2021/10/15 00:28:50;;;;;;;23.60;12.75;;;6.80;72.80;;;;;;5037964;28;20122;-37
2021/10/15 00:31:16;;;;;;;23.63;13.45;;;6.80;73.00;;;;;;5036826;28;20037;-35
2021/10/15 00:33:42;;;;;;;21.40;13.45;;;6.80;73.20;;;;;;5037591;28;20052;-37
2021/10/15 00:36:08;;;;;;;37.83;14.65;;;6.80;73.20;;;;;;5036146;28;20025;-37
2021/10/15 00:38:33;;;;;;;21.80;13.43;;;6.70;73.20;;;;;;5037773;28;20036;-37
2021/10/15 00:40:59;;;;;;;22.77;13.70;;;6.70;73.30;;;;;;5037360;28;20083;-34
2021/10/15 00:43:25;;;;;;;24.95;12.63;;;6.70;73.50;;;;;;5037348;28;20099;-35
2021/10/15 00:45:51;;;;;;;25.63;14.30;;;6.70;73.70;;;;;;5037260;28;20030;-37
2021/10/15 00:48:17;;;;;;;25.48;14.48;;;6.70;73.80;;;;;;5036700;28;20082;-34
2021/10/15 00:50:44;;;;;;;23.05;14.45;;;6.70;73.90;;;;;;5037147;28;20410;-34
2021/10/15 00:53:10;;;;;;;21.63;12.88;;;6.70;74.00;;;;;;5036529;28;20036;-39
2021/10/15 00:55:36;;;;;;;27.17;14.98;;;6.70;74.00;;;;;;5037025;28;20030;-34
2021/10/15 00:58:02;;;;;;;21.42;13.95;;;6.70;74.10;;;;;;5036731;28;20045;-34
2021/10/15 01:00:28;;;;;;;22.08;13.15;;;6.70;74.00;;;;;;5036850;28;20123;-34
2021/10/15 01:02:53;;;;;;;22.85;12.15;;;6.70;74.00;;;;;;5036835;28;20040;-37
2021/10/15 01:05:19;;;;;;;35.28;14.02;;;6.70;74.00;;;;;;5036856;28;20037;-37
2021/10/15 01:07:45;;;;;;;36.55;13.63;;;6.70;74.00;;;;;;5036440;28;20056;-34
2021/10/15 01:10:11;;;;;;;25.02;13.68;;;6.70;74.00;;;;;;5036607;28;20033;-34
2021/10/15 01:12:39;;;;;;;23.92;13.38;;;6.70;74.00;;;;;;5036830;28;20449;-35
2021/10/15 01:15:05;;;;;;;24.30;12.52;;;6.70;74.00;;;;;;5036550;28;20037;-38
2021/10/15 01:17:30;;;;;;;23.98;13.80;;;6.70;73.80;;;;;;5036378;28;20041;-35
2021/10/15 01:19:56;;;;;;;22.08;11.88;;;6.60;73.60;;;;;;5036408;28;20322;-37
2021/10/15 01:22:30;;;;;;;21.85;13.30;;;6.60;73.60;;;;;;5036295;28;20374;-35
2021/10/15 01:24:57;;;;;;;21.23;12.60;;;6.60;73.60;;;;;;5036118;28;20291;-37
2021/10/15 01:27:23;;;;;;;20.90;13.50;;;6.60;73.70;;;;;;5036344;28;20105;-34
2021/10/15 01:29:49;;;;;;;20.30;12.10;;;6.50;73.70;;;;;;5036290;28;20365;-35
2021/10/15 01:32:16;;;;;;;28.17;13.23;;;6.60;73.80;;;;;;5036141;28;20038;-37
2021/10/15 01:34:43;;;;;;;23.80;13.75;;;6.50;73.80;;;;;;5036084;28;20036;-37
2021/10/15 01:37:08;;;;;;;21.95;13.48;;;6.50;73.80;;;;;;5035958;28;20026;-37
2021/10/15 01:39:34;;;;;;;26.40;13.23;;;6.50;73.80;;;;;;5035928;28;20037;-34
2021/10/15 01:42:00;;;;;;;21.17;13.20;;;6.50;73.90;;;;;;5036424;28;20112;-37
2021/10/15 01:44:26;;;;;;;23.60;13.48;;;6.50;73.90;;;;;;5035831;28;20045;-37
2021/10/15 01:46:52;;;;;;;23.52;13.23;;;6.50;73.90;;;;;;5034944;28;20071;-34
2021/10/15 01:49:18;;;;;;;34.03;14.32;;;6.50;74.00;;;;;;5036076;28;20163;-34
2021/10/15 01:51:44;;;;;;;42.08;15.02;;;6.50;73.90;;;;;;5035572;28;20322;-38
2021/10/15 01:54:10;;;;;;;23.55;14.05;;;6.50;74.00;;;;;;5036031;28;20036;-34
2021/10/15 01:56:39;;;;;;;26.67;14.60;;;6.40;73.90;;;;;;5035480;28;20405;-34
2021/10/15 01:59:06;;;;;;;27.70;14.23;;;6.40;74.10;;;;;;5035778;28;20061;-37
2021/10/15 02:01:32;;;;;;;26.02;15.25;;;6.40;74.10;;;;;;5035828;28;20041;-35
2021/10/15 02:03:58;;;;;;;23.55;14.23;;;6.30;73.80;;;;;;5035863;28;20038;-37
2021/10/15 02:06:24;;;;;;;33.03;14.63;;;6.30;73.90;;;;;;5035550;28;20322;-39
2021/10/15 02:08:50;;;;;;;26.23;14.00;;;6.30;74.10;;;;;;5036339;28;20044;-35
2021/10/15 02:11:15;;;;;;;26.55;14.77;;;6.30;74.30;;;;;;5035154;28;20120;-38
2021/10/15 02:13:41;;;;;;;28.80;14.43;;;6.30;74.30;;;;;;5036171;28;20396;-34
2021/10/15 02:16:07;;;;;;;23.88;12.57;;;6.30;74.40;;;;;;5035029;28;20037;-34
2021/10/15 02:18:33;;;;;;;28.30;14.02;;;6.20;74.40;;;;;;5035889;28;20034;-34
2021/10/15 02:20:59;;;;;;;27.75;13.32;;;6.20;74.40;;;;;;5035678;28;20049;-37
2021/10/15 02:23:25;;;;;;;24.77;13.70;;;6.20;74.50;;;;;;5035745;28;20061;-34
2021/10/15 02:25:51;;;;;;;25.27;13.50;;;6.20;74.50;;;;;;5035413;28;20079;-34
2021/10/15 02:28:16;;;;;;;29.25;13.35;;;6.20;74.40;;;;;;5035442;28;20065;-34
2021/10/15 02:30:42;;;;;;;30.58;13.63;;;6.30;74.40;;;;;;5035355;28;20049;-37
2021/10/15 02:33:08;;;;;;;24.80;14.27;;;6.20;74.30;;;;;;5035082;28;20030;-37
2021/10/15 02:35:34;;;;;;;25.20;13.13;;;6.20;74.20;;;;;;5035083;28;20037;-34
2021/10/15 02:38:02;;;;;;;24.60;14.13;;;6.20;74.30;;;;;;5035431;28;20033;-37
2021/10/15 02:40:30;;;;;;;25.42;14.70;;;6.20;74.20;;;;;;5035563;28;20033;-35
2021/10/15 02:42:56;;;;;;;28.10;13.13;;;6.20;74.20;;;;;;5035313;28;20037;-37
2021/10/15 02:45:22;;;;;;;92.15;18.45;;;6.10;74.10;;;;;;5035191;28;20040;-35
2021/10/15 02:47:48;;;;;;;30.13;13.82;;;6.10;74.20;;;;;;5035323;28;20362;-35
2021/10/15 02:50:14;;;;;;;31.55;14.45;;;6.10;74.30;;;;;;5034911;28;20040;-36
2021/10/15 02:52:40;;;;;;;40.30;14.45;;;6.10;74.50;;;;;;5035280;28;20065;-35
2021/10/15 02:55:07;;;;;;;32.90;14.43;;;6.10;74.50;;;;;;5035353;28;20120;-36
2021/10/15 02:57:32;;;;;;;26.65;14.13;;;6.00;74.60;;;;;;5035091;28;20056;-36
2021/10/15 02:59:58;;;;;;;28.08;14.48;;;6.00;74.60;;;;;;5039164;28;20314;-35
2021/10/15 03:02:24;;;;;;;44.33;14.60;;;6.00;74.70;;;;;;5038923;28;20033;-35
2021/10/15 03:04:50;;;;;;;30.35;12.98;;;6.00;74.70;;;;;;5038835;28;20025;-38
2021/10/15 03:07:15;;;;;;;25.27;14.43;;;6.00;74.80;;;;;;5038914;28;20030;-35
2021/10/15 03:09:41;;;;;;;26.02;13.55;;;6.00;74.70;;;;;;5039060;28;20048;-35
2021/10/15 03:12:07;;;;;;;58.47;15.98;;;6.00;74.70;;;;;;5038518;28;20130;-35
2021/10/15 03:14:33;;;;;;;38.88;14.73;;;6.00;74.90;;;;;;5038715;28;20038;-38
2021/10/15 03:16:59;;;;;;;23.77;13.93;;;6.00;74.90;;;;;;5038827;28;20104;-35
2021/10/15 03:19:25;;;;;;;25.45;13.18;;;6.00;75.00;;;;;;5038777;28;20485;-38
2021/10/15 03:21:50;;;;;;;25.15;13.20;;;6.00;75.00;;;;;;5038746;28;20043;-35
2021/10/15 03:24:16;;;;;;;28.63;13.93;;;6.00;75.00;;;;;;5038376;28;20037;-35
2021/10/15 03:26:42;;;;;;;24.13;13.93;;;6.00;75.10;;;;;;5038663;28;20033;-37
2021/10/15 03:29:08;;;;;;;24.98;13.38;;;6.00;75.10;;;;;;5038400;28;20034;-35
2021/10/15 03:31:34;;;;;;;26.35;13.32;;;6.00;75.10;;;;;;5037283;28;20398;-37
2021/10/15 03:34:01;;;;;;;26.90;12.73;;;6.00;75.20;;;;;;5038688;28;20026;-39
2021/10/15 03:36:27;;;;;;;27.63;14.07;;;6.00;75.30;;;;;;5038222;28;20349;-36
2021/10/15 03:38:52;;;;;;;28.38;13.95;;;6.10;75.40;;;;;;5038689;28;20026;-35
2021/10/15 03:41:18;;;;;;;30.23;14.13;;;6.10;75.40;;;;;;5038157;28;20414;-36
2021/10/15 03:43:44;;;;;;;33.17;14.85;;;6.10;75.50;;;;;;5038706;28;20049;-39
2021/10/15 03:46:09;;;;;;;28.52;15.80;;;6.10;75.50;;;;;;5037897;28;20033;-38
2021/10/15 03:48:35;;;;;;;27.85;14.30;;;6.10;75.60;;;;;;5038631;28;20040;-38
2021/10/15 03:51:01;;;;;;;32.80;13.80;;;6.00;75.50;;;;;;5037895;28;20127;-37
2021/10/15 03:53:27;;;;;;;24.83;13.73;;;6.10;75.70;;;;;;5038204;28;20033;-36
2021/10/15 03:55:53;;;;;;;35.20;14.75;;;6.10;75.60;;;;;;5038086;28;20033;-35
2021/10/15 03:58:18;;;;;;;31.20;15.15;;;6.10;75.50;;;;;;5037992;28;20060;-38
2021/10/15 04:00:44;;;;;;;27.67;15.23;;;6.10;75.50;;;;;;5037896;28;20034;-38
2021/10/15 04:03:10;;;;;;;40.72;14.80;;;6.10;75.50;;;;;;5037923;28;20042;-36
2021/10/15 04:05:35;;;;;;;32.90;14.10;;;6.10;75.40;;;;;;5037932;28;20040;-35
2021/10/15 04:08:01;;;;;;;26.13;13.27;;;6.00;75.30;;;;;;5037777;28;20408;-39
2021/10/15 04:10:27;;;;;;;34.08;16.55;;;6.10;75.30;;;;;;5036804;28;20037;-35
2021/10/15 04:12:52;;;;;;;46.80;14.35;;;6.10;75.30;;;;;;5037695;28;20056;-38
2021/10/15 04:15:19;;;;;;;28.77;14.57;;;6.00;75.30;;;;;;5037299;28;20155;-35
2021/10/15 04:17:44;;;;;;;51.70;17.38;;;6.10;75.30;;;;;;5037629;28;20040;-35
2021/10/15 04:20:10;;;;;;;47.72;15.15;;;6.00;75.30;;;;;;5037480;28;20341;-35
2021/10/15 04:22:36;;;;;;;37.97;15.50;;;6.00;75.40;;;;;;5037180;28;20418;-38
2021/10/15 04:25:02;;;;;;;45.70;17.05;;;6.00;75.30;;;;;;5037209;28;20040;-35
2021/10/15 04:27:28;;;;;;;31.38;13.50;;;6.00;75.40;;;;;;5037563;28;20026;-36
2021/10/15 04:29:54;;;;;;;35.53;16.65;;;6.00;75.40;;;;;;5037393;28;20029;-39
2021/10/15 04:32:19;;;;;;;50.30;16.90;;;6.00;75.40;;;;;;5037318;28;20421;-39
2021/10/15 04:34:45;;;;;;;32.58;16.25;;;6.00;75.30;;;;;;5037226;28;20183;-38
2021/10/15 04:37:11;;;;;;;31.58;15.23;;;6.00;75.20;;;;;;5036887;28;20041;-38
2021/10/15 04:39:36;;;;;;;40.17;17.10;;;6.00;75.40;;;;;;5037035;28;20069;-36
2021/10/15 04:42:02;;;;;;;26.20;13.95;;;6.00;75.50;;;;;;5036804;28;20076;-35
2021/10/15 04:44:28;;;;;;;38.10;18.85;;;6.00;75.60;;;;;;5037219;28;20079;-39
2021/10/15 04:46:53;;;;;;;55.05;16.52;;;6.00;75.70;;;;;;5036779;28;20027;-39
2021/10/15 04:49:19;;;;;;;45.95;16.17;;;6.00;75.70;;;;;;5036704;28;20065;-39
2021/10/15 04:51:45;;;;;;;26.88;13.65;;;6.00;75.70;;;;;;5036816;28;20030;-38
2021/10/15 04:54:11;;;;;;;27.20;15.55;;;6.00;75.80;;;;;;5035535;28;20034;-38
2021/10/15 04:56:36;;;;;;;36.08;17.50;;;6.00;75.80;;;;;;5036445;28;20053;-39
2021/10/15 04:59:02;;;;;;;32.80;15.48;;;6.10;75.90;;;;;;5036577;28;20026;-35
2021/10/15 05:01:28;;;;;;;31.38;16.23;;;6.00;76.00;;;;;;5036360;28;20048;-36
2021/10/15 05:03:54;;;;;;;27.25;16.40;;;6.10;76.10;;;;;;5036975;28;20417;-36
2021/10/15 05:06:19;;;;;;;36.15;16.35;;;6.10;76.20;;;;;;5036338;28;20115;-35
2021/10/15 05:11:44;;;;;;;32.75;14.85;;;6.10;76.30;;;;;;5035964;28;20418;-36
2021/10/15 05:14:10;;;;;;;26.88;14.65;;;6.10;76.50;;;;;;5036220;28;20082;-35
2021/10/15 05:16:36;;;;;;;39.50;14.70;;;6.10;76.60;;;;;;5035691;28;20017;-35
2021/10/15 05:19:02;;;;;;;28.08;14.60;;;6.10;76.70;;;;;;5036147;28;20022;-38
2021/10/15 05:21:28;;;;;;;31.45;14.65;;;6.20;76.90;;;;;;5035696;28;20030;-36
2021/10/15 05:23:54;;;;;;;45.47;16.45;;;6.20;76.90;;;;;;5035872;28;20040;-35
2021/10/15 05:26:19;;;;;;;38.10;15.80;;;6.20;76.90;;;;;;5035781;28;20030;-37
2021/10/15 05:28:45;;;;;;;46.13;16.90;;;6.30;77.00;;;;;;5036062;28;20363;-35
2021/10/15 05:31:11;;;;;;;55.15;21.33;;;6.30;77.10;;;;;;5035256;28;20099;-35
2021/10/15 05:33:36;;;;;;;36.60;16.73;;;6.40;77.30;;;;;;5036583;28;20112;-37
2021/10/15 05:36:02;;;;;;;40.83;17.20;;;6.40;77.10;;;;;;5035732;28;20025;-36
2021/10/15 05:38:28;;;;;;;43.20;17.85;;;6.40;77.20;;;;;;5036177;28;20018;-38
2021/10/15 05:40:53;;;;;;;37.08;19.08;;;6.50;77.20;;;;;;5035647;28;20033;-39
2021/10/15 05:43:19;;;;;;;47.10;17.95;;;6.50;77.00;;;;;;5036013;28;20268;-38
2021/10/15 05:45:45;;;;;;;35.10;16.52;;;6.60;77.00;;;;;;5035933;28;20392;-34
2021/10/15 05:48:11;;;;;;;42.63;18.70;;;6.60;77.00;;;;;;5035687;28;20117;-35
2021/10/15 05:50:37;;;;;;;56.20;20.05;;;6.70;76.90;;;;;;5035499;28;20120;-38
2021/10/15 05:53:08;;;;;;;28.80;16.63;;;6.80;76.90;;;;;;5035591;28;20028;-35
2021/10/15 06:00:49;;;;;;;47.92;16.30;;;6.90;76.60;;;;;;5035205;28;20509;-35
2021/10/15 06:03:15;;;;;;;51.80;17.75;;;6.90;76.80;;;;;;5035331;28;20117;-35
2021/10/15 06:06:30;;;;;;;54.10;16.98;;;7.00;76.90;;;;;;5035662;28;20041;-36
2021/10/15 06:16:15;;;;;;;48.47;15.93;;;7.20;76.90;;;;;;5035079;28;20030;-36
2021/10/15 06:18:45;;;;;;;34.15;17.13;;;7.30;77.00;;;;;;5035665;28;20057;-36
2021/10/15 06:21:11;;;;;;;40.13;17.00;;;7.30;77.10;;;;;;5034796;28;20037;-39
2021/10/15 06:23:36;;;;;;;33.50;17.48;;;7.40;77.20;;;;;;5035475;28;20038;-40
2021/10/15 06:26:03;;;;;;;73.55;19.70;;;7.50;77.30;;;;;;5034900;28;20126;-39
2021/10/15 06:28:29;;;;;;;40.85;20.08;;;7.50;77.30;;;;;;5035399;28;20065;-39
2021/10/15 06:30:55;;;;;;;37.45;18.63;;;7.60;77.30;;;;;;5035178;28;20056;-39
2021/10/15 06:33:20;;;;;;;52.35;20.08;;;7.70;77.40;;;;;;5036977;28;20026;-36
2021/10/15 06:35:46;;;;;;;85.68;22.15;;;7.80;77.50;;;;;;5038915;28;20053;-36
2021/10/15 06:38:12;;;;;;;40.25;18.30;;;7.90;77.70;;;;;;5039378;28;20025;-35
2021/10/15 06:40:38;;;;;;;53.40;20.00;;;8.00;77.80;;;;;;5039280;28;20357;-36
2021/10/15 06:43:09;;;;;;;74.40;21.50;;;8.10;77.70;;;;;;5039409;28;20108;-35
2021/10/15 06:45:35;;;;;;;92.10;22.23;;;8.20;77.70;;;;;;5037893;28;20361;-39
2021/10/15 06:48:01;;;;;;;56.50;19.55;;;8.40;77.70;;;;;;5039091;28;20037;-36
2021/10/15 06:50:27;;;;;;;45.42;18.27;;;8.50;77.60;;;;;;5039082;28;20040;-35
2021/10/15 06:52:53;;;;;;;43.03;18.80;;;8.60;77.40;;;;;;5038913;28;20029;-36
2021/10/15 06:55:20;;;;;;;36.13;18.80;;;8.70;77.20;;;;;;5038911;28;20108;-38
2021/10/15 06:57:47;;;;;;;31.77;17.80;;;8.80;77.00;;;;;;5038472;28;20057;-36
2021/10/15 07:00:14;;;;;;;38.92;18.13;;;8.90;76.90;;;;;;5038389;28;20411;-39
2021/10/15 07:02:40;;;;;;;45.67;19.08;;;9.00;76.80;;;;;;5037421;28;20056;-39
2021/10/15 07:05:07;;;;;;;40.33;18.33;;;9.10;76.60;;;;;;5038659;28;20033;-36
2021/10/15 07:07:33;;;;;;;56.33;19.92;;;9.30;76.40;;;;;;5038272;28;20275;-35
2021/10/15 07:10:00;;;;;;;51.80;19.17;;;9.40;76.20;;;;;;5036999;28;20028;-35
2021/10/15 07:12:27;;;;;;;44.55;17.65;;;9.50;75.80;;;;;;5038265;28;20038;-35
2021/10/15 07:14:54;;;;;;;39.88;18.98;;;9.60;75.60;;;;;;5038682;28;20034;-39
2021/10/15 07:17:20;;;;;;;32.00;17.13;;;9.70;75.50;;;;;;5037135;28;20034;-39
2021/10/15 07:19:46;;;;;;;31.85;17.17;;;9.80;75.00;;;;;;5038524;28;20380;-37
2021/10/15 07:22:11;;;;;;;31.67;17.88;;;9.80;74.20;;;;;;5038473;28;20064;-36
2021/10/15 07:24:37;;;;;;;34.85;17.13;;;9.90;74.10;;;;;;5038235;28;20358;-40
2021/10/15 07:27:03;;;;;;;39.05;17.17;;;10.00;74.10;;;;;;5038170;28;20436;-38
2021/10/15 07:29:28;;;;;;;36.10;18.92;;;10.00;73.70;;;;;;5038481;28;20090;-39
2021/10/15 07:31:54;;;;;;;72.57;21.58;;;10.10;73.40;;;;;;5037821;28;20456;-38
2021/10/15 07:34:19;;;;;;;47.20;15.77;;;10.20;73.20;;;;;;5037836;28;20044;-39
2021/10/15 07:36:45;;;;;;;42.03;16.88;;;10.30;72.60;;;;;;5037960;28;20029;-36
2021/10/15 07:39:11;;;;;;;27.88;16.10;;;10.40;72.40;;;;;;5038049;28;20045;-39
2021/10/15 07:41:43;;;;;;;28.15;15.52;;;10.50;71.90;;;;;;5038043;28;20044;-36
2021/10/15 07:44:10;;;;;;;46.78;16.40;;;10.50;71.40;;;;;;5037154;28;20041;-39
2021/10/15 07:46:36;;;;;;;30.20;15.27;;;10.60;71.00;;;;;;5037390;28;20159;-40
2021/10/15 07:49:02;;;;;;;24.42;15.20;;;10.70;70.60;;;;;;5038150;28;20380;-40
2021/10/15 07:51:27;;;;;;;31.45;15.00;;;10.70;70.60;;;;;;5037467;28;20026;-40
2021/10/15 07:53:53;;;;;;;23.77;14.43;;;10.80;70.40;;;;;;5038073;28;20404;-40
2021/10/15 07:56:19;;;;;;;79.95;20.65;;;10.90;70.20;;;;;;5036871;28;20132;-36
2021/10/15 07:58:44;;;;;;;33.70;13.98;;;10.90;70.40;;;;;;5038211;28;20118;-35
2021/10/15 08:01:10;;;;;;;37.63;13.75;;;11.00;69.80;;;;;;5037187;28;20066;-35
2021/10/15 08:03:36;;;;;;;63.30;21.67;;;11.00;69.80;;;;;;5036534;28;20034;-36
2021/10/15 08:06:01;;;;;;;26.50;13.35;;;11.10;69.60;;;;;;5037407;28;20061;-35
2021/10/15 08:08:27;;;;;;;20.52;11.77;;;11.20;69.20;;;;;;5037629;28;20317;-38
2021/10/15 08:10:53;;;;;;;33.00;13.75;;;11.30;69.00;;;;;;5037147;28;20041;-38
2021/10/15 08:13:18;;;;;;;22.33;11.77;;;11.30;68.50;;;;;;5037631;28;20033;-35
2021/10/15 08:15:44;;;;;;;18.38;10.88;;;11.40;68.30;;;;;;5036103;28;20029;-39
2021/10/15 08:18:10;;;;;;;36.55;14.63;;;11.50;67.80;;;;;;5037267;28;20148;-35
2021/10/15 08:20:36;;;;;;;39.38;13.07;;;11.50;67.40;;;;;;5037240;28;20037;-35
2021/10/15 08:23:01;;;;;;;19.00;10.68;;;11.60;67.00;;;;;;5037250;28;20037;-35
2021/10/15 08:25:28;;;;;;;19.85;12.38;;;11.70;67.00;;;;;;5037020;28;20064;-39
2021/10/15 08:27:55;;;;;;;21.92;11.05;;;11.70;66.50;;;;;;5037180;28;20398;-36
2021/10/15 08:30:21;;;;;;;23.63;11.05;;;11.70;66.40;;;;;;5036734;28;20029;-34
2021/10/15 08:32:46;;;;;;;22.33;12.05;;;11.80;65.80;;;;;;5037378;28;20106;-39
2021/10/15 08:35:12;;;;;;;79.57;16.05;;;11.90;65.50;;;;;;5037197;28;20395;-38
2021/10/15 08:37:39;;;;;;;21.80;10.90;;;11.90;65.50;;;;;;5037186;28;20061;-39
2021/10/15 08:40:07;;;;;;;16.67;10.75;;;12.00;65.20;;;;;;5036564;28;20033;-35
2021/10/15 08:42:33;;;;;;;29.77;12.85;;;12.00;65.00;;;;;;5036985;28;20053;-40
2021/10/15 08:44:58;;;;;;;31.15;12.75;;;12.10;65.20;;;;;;5037060;28;20064;-40
2021/10/15 08:47:25;;;;;;;102.45;15.60;;;12.10;64.90;;;;;;5036657;28;20049;-37
2021/10/15 08:49:51;;;;;;;28.77;11.00;;;12.20;64.50;;;;;;5037193;28;20037;-36
2021/10/15 08:52:17;;;;;;;30.88;10.88;;;12.20;64.20;;;;;;5035341;28;20299;-36
2021/10/15 08:54:45;;;;;;;14.82;9.65;;;12.30;63.80;;;;;;5036555;28;20040;-37
2021/10/15 08:57:13;;;;;;;19.95;9.48;;;12.30;62.90;;;;;;5035683;28;20037;-35
2021/10/15 08:59:44;;;;;;;22.13;11.40;;;12.30;62.80;;;;;;5036699;28;20025;-39
2021/10/15 09:02:21;;;;;;;18.40;7.43;;;12.40;62.70;;;;;;5036453;28;20028;-37
2021/10/15 09:04:58;;;;;;;13.00;7.80;;;12.50;61.30;;;;;;5036299;28;20025;-36
2021/10/15 09:07:26;;;;;;;16.80;8.32;;;12.50;61.20;;;;;;5036257;28;20032;-40
2021/10/15 09:10:11;;;;;;;21.98;7.72;;;12.60;60.60;;;;;;5035936;28;20076;-39
2021/10/15 09:12:45;;;;;;;14.77;6.05;;;12.60;60.30;;;;;;5036504;28;20283;-39
2021/10/15 09:15:11;;;;;;;13.18;6.85;;;12.70;59.30;;;;;;5036029;28;20021;-39
2021/10/15 09:17:49;;;;;;;22.20;8.35;;;12.70;58.40;;;;;;5036135;28;20033;-35
2021/10/15 09:20:29;;;;;;;22.48;7.72;;;12.80;58.50;;;;;;5036071;28;20037;-36
2021/10/15 09:22:54;;;;;;;21.67;8.13;;;12.90;58.80;;;;;;5036325;28;20029;-36
2021/10/15 09:25:21;;;;;;;9.75;6.63;;;12.90;59.00;;;;;;5036019;28;20440;-36
2021/10/15 09:27:50;;;;;;;11.95;6.07;;;13.00;58.20;;;;;;5034824;28;20058;-39
2021/10/15 09:30:23;;;;;;;36.60;8.32;;;13.10;57.30;;;;;;5035964;28;20042;-36
2021/10/15 09:32:54;;;;;;;64.65;12.48;;;13.10;56.90;;;;;;5035891;28;20033;-35
2021/10/15 09:35:23;;;;;;;15.65;6.28;;;13.20;57.10;;;;;;5036143;28;20112;-39
2021/10/15 09:37:54;;;;;;;15.48;7.00;;;13.30;57.00;;;;;;5035964;28;20045;-36
2021/10/15 09:40:23;;;;;;;15.50;5.97;;;13.30;56.60;;;;;;5035922;28;20369;-37
2021/10/15 09:42:55;;;;;;;10.02;5.32;;;13.40;56.30;;;;;;5035443;28;20056;-37
2021/10/15 09:45:29;;;;;;;24.73;6.45;;;13.50;55.30;;;;;;5035962;28;20057;-37
2021/10/15 09:48:00;;;;;;;8.13;4.82;;;13.50;53.90;;;;;;5035508;28;20029;-35
2021/10/15 09:50:28;;;;;;;15.82;5.40;;;13.60;54.00;;;;;;5035463;28;20489;-39
2021/10/15 09:52:56;;;;;;;9.05;5.88;;;13.60;53.70;;;;;;5035783;28;20060;-39
2021/10/15 09:55:34;;;;;;;9.63;5.10;;;13.70;53.70;;;;;;5035825;28;20037;-36
2021/10/15 09:58:17;;;;;;;12.40;7.45;;;13.70;54.10;;;;;;5035414;28;20329;-40
2021/10/15 10:00:44;;;;;;;15.93;6.57;;;13.80;54.10;;;;;;5035760;28;20033;-44
2021/10/15 10:03:10;;;;;;;11.02;5.93;;;13.80;54.20;;;;;;5035618;28;20037;-36
2021/10/15 10:05:37;;;;;;;37.53;8.73;;;13.80;53.80;;;;;;5035802;28;20033;-35
2021/10/15 10:08:04;;;;;;;15.88;5.47;;;13.90;53.30;;;;;;5034344;28;20452;-38
2021/10/15 10:10:36;;;;;;;18.98;4.68;;;14.00;52.20;;;;;;5035249;28;20029;-40
2021/10/15 10:13:03;;;;;;;9.18;3.63;;;14.00;50.80;;;;;;5035729;28;20029;-36
2021/10/15 10:15:31;;;;;;;10.57;4.45;;;14.10;51.20;;;;;;5035221;28;20441;-36
2021/10/15 10:20:40;;;;;;;15.98;4.70;;;14.20;50.60;;;;;;5035464;28;20037;-38
2021/10/15 10:23:16;;;;;;;7.18;4.47;;;14.20;51.30;;;;;;5035302;28;20041;-36
2021/10/15 10:25:42;;;;;;;14.63;4.70;;;14.20;51.60;;;;;;5034968;28;20049;-35
2021/10/15 10:28:17;;;;;;;17.83;5.95;;;14.30;51.30;;;;;;5035183;28;20033;-39
2021/10/15 10:30:46;;;;;;;13.85;4.68;;;14.40;51.30;;;;;;5035313;28;20045;-39
2021/10/15 10:33:12;;;;;;;24.33;5.22;;;14.40;50.90;;;;;;5035218;28;20025;-36
2021/10/15 10:35:39;;;;;;;5.50;3.60;;;14.50;50.90;;;;;;5035060;28;20068;-37
2021/10/15 10:38:20;;;;;;;8.65;4.50;;;14.50;50.70;;;;;;5035229;28;20026;-38
2021/10/15 10:41:01;;;;;;;13.07;3.75;;;14.60;49.90;;;;;;5035253;28;20377;-40
2021/10/15 10:43:27;;;;;;;;;;;14.70;49.20;;;;;;5035616;28;20033;-40
2021/10/15 10:46:12;;;;;;;22.98;5.35;;;14.70;50.30;;;;;;5034967;28;20297;-39
2021/10/15 10:48:46;;;;;;;14.90;5.55;;;14.80;49.40;;;;;;5035483;28;20091;-39
2021/10/15 10:51:13;;;;;;;5.70;3.90;;;14.90;49.20;;;;;;5034254;28;20033;-38
2021/10/15 10:54:00;;;;;;;14.73;3.95;;;14.90;48.40;;;;;;5034754;28;20159;-39
2021/10/15 10:56:38;;;;;;;12.18;3.90;;;15.00;47.30;;;;;;5034389;28;20065;-35
2021/10/15 10:59:20;;;;;;;31.73;5.50;;;15.10;47.00;;;;;;5035148;28;20030;-39
2021/10/15 11:02:12;;;;;;;5.25;3.50;;;15.10;46.80;;;;;;5034624;28;20329;-35
2021/10/15 11:04:40;;;;;;;8.40;3.20;;;15.10;45.80;;;;;;5034589;28;20029;-35
2021/10/15 11:07:22;;;;;;;28.08;5.22;;;15.20;46.30;;;;;;5034672;28;20506;-35
2021/10/15 11:10:03;;;;;;;48.80;6.78;;;15.30;46.20;;;;;;5033973;28;20033;-35
2021/10/15 11:12:29;;;;;;;4.43;3.20;;;15.30;45.70;;;;;;5034538;28;20398;-35
2021/10/15 11:15:08;;;;;;;7.13;2.92;;;15.40;45.50;;;;;;5034622;28;20026;-39
2021/10/15 11:17:42;;;;;;;7.80;3.37;;;15.50;44.70;;;;;;5034490;28;20413;-40
2021/10/15 11:20:29;;;;;;;17.23;3.40;;;15.50;44.60;;;;;;5036782;28;20155;-35
2021/10/15 11:23:04;;;;;;;9.43;3.25;;;15.60;44.30;;;;;;5038377;28;20030;-35
2021/10/15 11:25:37;;;;;;;15.60;3.88;;;15.70;44.90;;;;;;5038489;28;20506;-39
2021/10/15 11:28:14;;;;;;;23.35;4.13;;;15.70;44.80;;;;;;5038307;28;20025;-40
2021/10/15 11:30:49;;;;;;;8.63;3.85;;;15.80;44.70;;;;;;5038251;28;20037;-36
2021/10/15 11:33:17;;;;;;;3.90;2.85;;;16.00;44.20;;;;;;5038023;28;20025;-39
2021/10/15 11:35:45;;;;;;;5.85;3.28;;;16.00;43.70;;;;;;5037979;28;20071;-36
2021/10/15 11:38:19;;;;;;;23.58;4.30;;;16.10;43.60;;;;;;5037917;28;20083;-39
2021/10/15 11:40:47;;;;;;;5.15;3.00;;;16.20;43.60;;;;;;5037530;28;20033;-36
2021/10/15 11:43:31;;;;;;;4.68;3.13;;;16.30;43.20;;;;;;5037943;28;20049;-39
2021/10/15 11:46:02;;;;;;;20.33;4.47;;;16.40;42.80;;;;;;5037660;28;20036;-39
2021/10/15 11:48:40;;;;;;;27.92;9.40;;;16.50;43.30;;;;;;5038056;28;20056;-36
2021/10/15 11:51:17;;;;;;;5.90;3.38;;;16.60;42.60;;;;;;5037200;28;20030;-39
2021/10/15 11:53:44;;;;;;;8.45;3.97;;;16.70;42.80;;;;;;5038393;28;20025;-39
2021/10/15 11:56:12;;;;;;;11.63;3.20;;;16.90;42.90;;;;;;5037276;28;20044;-39
2021/10/15 11:58:43;;;;;;;5.90;2.88;;;17.00;42.20;;;;;;5038277;28;20309;-36
2021/10/15 12:01:15;;;;;;;39.45;6.32;;;17.10;41.30;;;;;;5037660;28;20037;-36
2021/10/15 12:03:52;;;;;;;14.23;3.80;;;17.20;41.60;;;;;;5038215;28;20076;-37
2021/10/15 12:06:23;;;;;;;5.18;3.10;;;17.40;41.40;;;;;;5036091;28;20065;-39
2021/10/15 12:09:01;;;;;;;6.40;2.97;;;17.50;40.80;;;;;;5038101;28;20032;-37
2021/10/15 12:11:44;;;;;;;5.72;3.17;;;17.60;40.60;;;;;;5037210;28;20073;-40
2021/10/15 12:14:17;;;;;;;42.42;5.43;;;17.70;39.40;;;;;;5037525;28;20033;-36
2021/10/15 12:16:46;;;;;;;8.70;3.45;;;17.90;40.30;;;;;;5037062;28;20029;-39
2021/10/15 12:19:19;;;;;;;65.70;8.57;;;18.00;40.60;;;;;;5037435;28;20039;-36
2021/10/15 12:21:55;;;;;;;12.80;3.25;;;18.10;40.70;;;;;;5036254;28;20029;-36
2021/10/15 12:24:30;;;;;;;26.67;4.93;;;18.30;39.60;;;;;;5037323;28;20022;-37
2021/10/15 12:27:13;;;;;;;21.17;5.18;;;18.40;38.90;;;;;;5037012;28;20479;-40
2021/10/15 12:29:48;;;;;;;9.93;5.43;;;18.50;39.10;;;;;;5036919;28;20445;-36
2021/10/15 12:32:26;;;;;;;9.65;5.43;;;18.60;39.40;;;;;;5036217;28;20083;-40
2021/10/15 12:35:10;;;;;;;8.30;3.20;;;18.70;39.50;;;;;;5036799;28;20030;-35
2021/10/15 12:37:36;;;;;;;18.00;4.95;;;18.80;39.40;;;;;;5036831;28;20365;-36
2021/10/15 12:40:11;;;;;;;12.15;4.07;;;19.00;38.80;;;;;;5036804;28;20025;-40
2021/10/15 12:42:37;;;;;;;8.43;3.72;;;19.10;38.40;;;;;;5036992;28;20032;-39
2021/10/15 12:45:11;;;;;;;6.45;3.70;;;19.20;38.40;;;;;;5036928;28;20033;-38
2021/10/15 12:47:41;;;;;;;10.27;5.03;;;19.30;37.80;;;;;;5036766;28;20033;-36
2021/10/15 12:50:11;;;;;;;15.82;4.65;;;19.40;37.50;;;;;;5036634;28;20428;-36
2021/10/15 12:52:38;;;;;;;;;;;19.40;37.50;;;;;;5036992;28;20426;-36
2021/10/15 12:55:19;;;;;;;10.80;4.30;;;19.40;38.00;;;;;;5036632;28;19963;-40
2021/10/15 12:57:46;;;;;;;19.65;5.25;;;19.40;37.60;;;;;;5036438;28;20169;-35
2021/10/15 13:00:19;;;;;;;14.80;4.93;;;19.40;38.00;;;;;;5036429;28;20025;-36
2021/10/15 13:02:46;;;;;;;20.58;4.68;;;19.40;37.80;;;;;;5036322;28;20034;-37